Time;durP1;ratioP1;P1;durP2;ratioP2;P2;SDS_P1;SDS_P2;PMS_P1;PMS_P2;Temp;Humidity;BMP_temperature;BMP_pressure;BME280_temperature;BME280_humidity;BME280_pressure;Samples;Min_cycle;Max_cycle;Signal;HPM_P1;HPM_P2
2023/07/07 00:00:13;;;;;;;4.60;3.25;;;13.40;99.90;;;;;;4979703;28;20110;-87
2023/07/07 00:02:41;;;;;;;8.13;3.80;;;13.40;99.90;;;;;;4982664;28;20042;-85
2023/07/07 00:05:07;;;;;;;5.43;3.58;;;13.40;99.90;;;;;;4956671;28;20039;-87
2023/07/07 00:07:34;;;;;;;4.35;3.00;;;13.30;99.90;;;;;;4974274;28;20050;-87
2023/07/07 00:09:59;;;;;;;6.78;3.28;;;13.30;99.90;;;;;;4968568;28;20167;-86
2023/07/07 00:12:25;;;;;;;6.20;3.10;;;13.30;99.90;;;;;;4956413;28;20134;-87
2023/07/07 00:14:51;;;;;;;4.93;3.53;;;13.30;99.90;;;;;;4960738;28;20031;-87
2023/07/07 00:17:17;;;;;;;4.50;3.33;;;13.20;99.90;;;;;;4979775;28;20038;-86
2023/07/07 00:19:43;;;;;;;5.45;3.33;;;13.20;99.90;;;;;;4964972;28;20039;-85
2023/07/07 00:22:08;;;;;;;4.45;3.15;;;13.20;99.90;;;;;;5004016;28;20072;-87
2023/07/07 00:24:35;;;;;;;4.28;3.03;;;13.20;99.90;;;;;;4978294;28;20034;-86
2023/07/07 00:27:01;;;;;;;4.25;2.75;;;13.10;99.90;;;;;;4963931;28;20030;-86
2023/07/07 00:29:27;;;;;;;5.78;3.25;;;13.10;99.90;;;;;;4991906;28;20034;-87
2023/07/07 00:31:53;;;;;;;3.22;2.83;;;13.10;99.90;;;;;;5002647;28;20034;-87
2023/07/07 00:34:19;;;;;;;3.72;2.80;;;13.00;99.90;;;;;;4991468;28;20100;-87
2023/07/07 00:36:45;;;;;;;4.75;3.15;;;13.00;99.90;;;;;;4971750;28;20042;-86
2023/07/07 00:39:11;;;;;;;4.38;3.03;;;12.90;99.90;;;;;;4966590;28;20049;-86
2023/07/07 00:41:37;;;;;;;3.10;2.67;;;12.90;99.90;;;;;;4995964;28;20045;-86
2023/07/07 00:44:09;;;;;;;3.28;2.97;;;12.90;99.90;;;;;;4978068;28;20037;-85
2023/07/07 00:46:36;;;;;;;5.82;3.38;;;12.80;99.90;;;;;;5007738;28;20053;-87
2023/07/07 00:49:06;;;;;;;3.55;2.88;;;12.60;99.90;;;;;;5001688;28;20658;-85
2023/07/07 00:51:36;;;;;;;5.30;3.30;;;12.60;99.90;;;;;;4991763;28;20041;-87
2023/07/07 00:54:10;;;;;;;3.97;3.40;;;12.60;99.90;;;;;;4972769;28;20053;-85
2023/07/07 00:56:44;;;;;;;3.88;3.17;;;12.60;99.90;;;;;;4998976;28;20038;-86
2023/07/07 00:59:15;;;;;;;4.75;3.50;;;12.60;99.90;;;;;;4956558;28;20066;-86
2023/07/07 01:01:42;;;;;;;4.03;3.50;;;12.50;99.90;;;;;;4980826;28;20090;-86
2023/07/07 01:04:13;;;;;;;5.85;3.50;;;12.40;99.90;;;;;;4989781;28;20036;-87
2023/07/07 01:06:43;;;;;;;5.80;3.85;;;12.40;99.90;;;;;;4982732;28;20038;-86
2023/07/07 01:09:09;;;;;;;4.13;3.00;;;12.50;99.90;;;;;;4978168;28;20025;-86
2023/07/07 01:11:36;;;;;;;3.70;3.13;;;12.50;99.90;;;;;;4990866;28;20666;-85
2023/07/07 01:14:07;;;;;;;4.40;3.67;;;12.50;99.90;;;;;;4969689;28;20087;-85
2023/07/07 01:16:54;;;;;;;4.85;3.28;;;12.50;99.90;;;;;;4992069;28;20030;-86
2023/07/07 01:20:00;;;;;;;8.77;2.70;;;12.50;99.90;;;;;;5009823;28;20049;-86
2023/07/07 01:22:40;;;;;;;3.97;3.00;;;12.50;99.90;;;;;;4982838;28;20033;-87
2023/07/07 01:25:37;;;;;;;5.32;3.13;;;12.40;99.90;;;;;;4982528;28;20034;-87
2023/07/07 01:28:36;;;;;;;4.25;3.45;;;12.40;99.90;;;;;;4992201;28;20106;-86
2023/07/07 01:31:18;;;;;;;3.97;3.40;;;12.30;99.90;;;;;;5003842;28;20717;-87
2023/07/07 01:33:46;;;;;;;5.85;4.38;;;12.30;99.90;;;;;;4974311;28;20069;-87
2023/07/07 01:36:13;;;;;;;5.95;3.90;;;12.30;99.90;;;;;;4990548;28;20057;-86
2023/07/07 01:38:43;;;;;;;7.40;3.97;;;12.30;99.90;;;;;;4974798;28;20121;-86
2023/07/07 01:41:27;;;;;;;8.30;3.97;;;12.20;99.90;;;;;;4985262;28;20033;-86
2023/07/07 01:44:12;;;;;;;4.85;3.47;;;12.20;99.90;;;;;;4987134;28;20033;-86
2023/07/07 01:46:48;;;;;;;5.07;3.60;;;12.20;99.90;;;;;;4992094;28;20030;-87
2023/07/07 01:49:35;;;;;;;8.10;4.00;;;12.10;99.90;;;;;;4974781;28;20026;-86
2023/07/07 01:52:17;;;;;;;4.22;3.80;;;12.10;99.90;;;;;;4991665;28;20026;-85
2023/07/07 01:54:49;;;;;;;6.35;3.78;;;12.00;99.90;;;;;;4983299;28;20038;-86
2023/07/07 01:57:16;;;;;;;5.50;3.78;;;12.00;99.90;;;;;;4989163;28;20034;-84
2023/07/07 01:59:43;;;;;;;5.13;4.10;;;12.00;99.90;;;;;;4991775;28;20077;-87
2023/07/07 02:02:09;;;;;;;7.25;4.32;;;12.00;99.90;;;;;;5004206;28;20045;-84
2023/07/07 02:04:35;;;;;;;4.72;3.90;;;12.00;99.90;;;;;;4975016;28;20034;-84
2023/07/07 02:07:01;;;;;;;6.90;3.92;;;12.00;99.90;;;;;;4964384;28;20787;-85
2023/07/07 02:09:29;;;;;;;6.65;4.70;;;11.90;99.90;;;;;;4976490;28;20026;-85
2023/07/07 02:11:56;;;;;;;5.80;3.83;;;11.90;99.90;;;;;;4973674;28;20091;-85
2023/07/07 02:14:22;;;;;;;5.85;4.35;;;11.90;99.90;;;;;;5008156;28;20084;-85
2023/07/07 02:16:49;;;;;;;4.10;3.63;;;11.90;99.90;;;;;;4986926;28;20042;-86
2023/07/07 02:19:16;;;;;;;6.07;3.65;;;11.90;99.90;;;;;;4968060;28;20147;-85
2023/07/07 02:21:42;;;;;;;3.75;3.42;;;11.90;99.90;;;;;;4953891;28;20034;-86
2023/07/07 02:24:07;;;;;;;6.45;4.00;;;11.80;99.90;;;;;;4982605;28;20412;-86
2023/07/07 02:26:35;;;;;;;5.10;3.92;;;11.80;99.90;;;;;;4974969;28;20044;-85
2023/07/07 02:29:01;;;;;;;4.72;3.80;;;11.80;99.90;;;;;;4987278;28;20033;-86
2023/07/07 02:31:26;;;;;;;5.38;3.63;;;11.70;99.90;;;;;;4970501;28;20030;-86
2023/07/07 02:33:53;;;;;;;5.65;3.97;;;11.70;99.90;;;;;;4993731;28;20093;-84
2023/07/07 02:36:19;;;;;;;4.05;3.33;;;11.70;99.90;;;;;;5002128;28;20034;-87
2023/07/07 02:38:46;;;;;;;6.45;3.88;;;11.70;99.90;;;;;;4991234;28;20559;-86
2023/07/07 02:41:12;;;;;;;5.55;4.10;;;11.60;99.90;;;;;;4997775;28;20041;-85
2023/07/07 02:43:38;;;;;;;4.88;4.03;;;11.60;99.90;;;;;;4984713;28;20030;-86
2023/07/07 02:46:04;;;;;;;7.38;4.75;;;11.60;99.90;;;;;;4978954;28;20108;-85
2023/07/07 02:48:30;;;;;;;4.68;4.13;;;11.60;99.90;;;;;;4982961;28;20449;-84
2023/07/07 02:51:02;;;;;;;5.38;4.28;;;11.50;99.90;;;;;;4975701;28;20078;-85
2023/07/07 02:53:31;;;;;;;6.28;4.57;;;11.50;99.90;;;;;;5001554;28;20428;-84
2023/07/07 02:55:57;;;;;;;5.05;4.40;;;11.40;99.90;;;;;;4980900;28;20519;-85
2023/07/07 02:58:24;;;;;;;8.30;4.85;;;11.40;99.90;;;;;;4959821;28;20038;-86
2023/07/07 03:00:50;;;;;;;7.13;4.97;;;11.40;99.90;;;;;;4996159;28;20048;-85
2023/07/07 03:03:17;;;;;;;7.55;5.32;;;11.30;99.90;;;;;;4983463;28;20034;-85
2023/07/07 03:05:45;;;;;;;6.32;4.28;;;11.20;99.90;;;;;;5008615;28;20026;-85
2023/07/07 03:08:12;;;;;;;5.05;4.40;;;11.20;99.90;;;;;;4990029;28;20512;-84
2023/07/07 03:10:39;;;;;;;5.50;3.85;;;11.20;99.90;;;;;;5003392;28;20039;-84
2023/07/07 03:13:06;;;;;;;4.53;4.00;;;11.20;99.90;;;;;;5011065;28;20091;-85
2023/07/07 03:15:40;;;;;;;4.90;3.90;;;11.10;99.90;;;;;;4990607;28;20077;-85
2023/07/07 03:18:13;;;;;;;5.97;4.60;;;11.20;99.90;;;;;;5006556;28;20092;-84
2023/07/07 03:20:48;;;;;;;7.00;4.30;;;11.20;99.90;;;;;;4969471;28;20065;-84
2023/07/07 03:23:17;;;;;;;;;;;11.20;99.90;;;;;;4992895;28;20557;-86
2023/07/07 03:25:43;;;;;;;6.65;4.47;;;11.20;99.90;;;;;;4997039;28;19918;-85
2023/07/07 03:28:11;;;;;;;7.22;4.40;;;11.20;99.90;;;;;;4980579;28;20037;-86
2023/07/07 03:30:40;;;;;;;5.55;4.28;;;11.20;99.90;;;;;;4950446;28;20552;-86
2023/07/07 03:33:16;;;;;;;6.75;4.50;;;11.20;99.90;;;;;;4992824;28;20037;-84
2023/07/07 03:35:45;;;;;;;6.63;5.10;;;11.20;99.90;;;;;;4959797;28;20053;-84
2023/07/07 03:38:12;;;;;;;6.65;5.03;;;11.20;99.90;;;;;;4983759;28;20037;-85
2023/07/07 03:40:47;;;;;;;6.88;4.80;;;11.30;99.90;;;;;;4981140;28;20121;-84
2023/07/07 03:43:13;;;;;;;6.18;4.97;;;11.30;99.90;;;;;;4984210;28;20045;-85
2023/07/07 03:45:40;;;;;;;5.13;4.63;;;11.30;99.90;;;;;;4984813;28;20069;-85
2023/07/07 03:48:06;;;;;;;6.57;5.00;;;11.20;99.90;;;;;;4990414;28;20053;-84
2023/07/07 03:50:32;;;;;;;7.68;4.57;;;11.20;99.90;;;;;;4969152;28;20019;-85
2023/07/07 03:52:58;;;;;;;7.63;5.20;;;11.30;99.90;;;;;;4977945;28;20401;-86
2023/07/07 03:55:25;;;;;;;6.20;4.53;;;11.30;99.90;;;;;;4973856;28;20060;-85
2023/07/07 03:57:52;;;;;;;7.40;4.47;;;11.30;99.90;;;;;;4969874;28;20081;-86
2023/07/07 04:00:19;;;;;;;5.55;4.57;;;11.30;99.90;;;;;;4968515;28;20035;-86
2023/07/07 04:02:44;;;;;;;5.00;4.25;;;11.40;99.90;;;;;;4973099;28;20455;-84
2023/07/07 04:05:11;;;;;;;8.15;5.47;;;11.30;99.90;;;;;;5004178;28;20150;-84
2023/07/07 04:07:36;;;;;;;5.28;4.60;;;11.40;99.90;;;;;;4993739;28;20080;-84
2023/07/07 04:10:03;;;;;;;4.93;4.07;;;11.40;99.90;;;;;;4990764;28;20042;-85
2023/07/07 04:12:31;;;;;;;7.22;4.75;;;11.40;99.90;;;;;;5002705;28;20558;-84
2023/07/07 04:15:01;;;;;;;7.90;4.75;;;11.50;99.90;;;;;;4995269;28;20040;-85
2023/07/07 04:17:26;;;;;;;5.55;4.13;;;11.50;99.90;;;;;;4993844;28;20042;-85
2023/07/07 04:19:53;;;;;;;5.07;3.95;;;11.50;99.90;;;;;;4993956;28;20046;-86
2023/07/07 04:22:19;;;;;;;5.22;4.05;;;11.60;99.90;;;;;;4966691;28;20035;-86
2023/07/07 04:24:45;;;;;;;4.68;3.85;;;11.60;99.90;;;;;;4963203;28;20041;-86
2023/07/07 04:27:11;;;;;;;7.50;4.30;;;11.60;99.90;;;;;;4968819;28;20034;-84
2023/07/07 04:29:37;;;;;;;5.10;3.95;;;11.70;99.90;;;;;;4995996;28;20080;-84
2023/07/07 04:32:04;;;;;;;6.38;4.80;;;11.70;99.90;;;;;;4997812;28;20067;-84
2023/07/07 04:34:30;;;;;;;5.32;4.60;;;11.80;99.90;;;;;;4989647;28;20098;-85
2023/07/07 04:36:56;;;;;;;6.40;4.65;;;11.80;99.90;;;;;;4979674;28;20034;-84
2023/07/07 04:39:23;;;;;;;6.88;4.63;;;11.90;99.90;;;;;;4983678;28;20037;-85
2023/07/07 04:41:50;;;;;;;9.65;5.35;;;11.90;99.90;;;;;;4981739;28;20043;-86
2023/07/07 04:44:16;;;;;;;5.28;4.70;;;12.00;99.90;;;;;;4986671;28;20147;-86
2023/07/07 04:46:42;;;;;;;5.45;4.93;;;12.00;99.90;;;;;;4989539;28;20528;-86
2023/07/07 04:49:09;;;;;;;6.70;4.63;;;12.10;99.90;;;;;;5013170;28;20050;-85
2023/07/07 04:51:39;;;;;;;6.63;4.03;;;12.20;99.90;;;;;;4996273;28;20026;-84
2023/07/07 04:54:06;;;;;;;5.10;4.00;;;12.30;99.90;;;;;;4964706;28;20038;-86
2023/07/07 04:56:33;;;;;;;4.95;4.00;;;12.40;99.90;;;;;;4995058;28;20078;-85
2023/07/07 04:58:59;;;;;;;6.20;3.88;;;12.40;99.90;;;;;;5005804;28;20116;-84
2023/07/07 05:01:27;;;;;;;5.05;4.05;;;12.50;99.90;;;;;;5012415;28;20602;-85
2023/07/07 05:03:55;;;;;;;5.18;3.92;;;12.50;99.90;;;;;;5002452;28;20026;-84
2023/07/07 05:06:24;;;;;;;7.35;4.05;;;12.60;99.90;;;;;;4988091;28;20023;-84
2023/07/07 05:08:49;;;;;;;4.80;4.00;;;12.60;99.90;;;;;;4995584;28;20124;-86
2023/07/07 05:11:18;;;;;;;5.32;4.00;;;12.70;99.90;;;;;;4991920;28;20058;-85
2023/07/07 05:13:48;;;;;;;4.55;3.92;;;12.70;99.90;;;;;;4985587;28;20027;-85
2023/07/07 05:16:17;;;;;;;6.28;3.72;;;12.80;99.90;;;;;;4979844;28;20413;-86
2023/07/07 05:18:42;;;;;;;7.68;4.03;;;12.90;99.90;;;;;;4963452;28;20089;-85
2023/07/07 05:21:10;;;;;;;7.40;3.95;;;13.00;99.90;;;;;;4989582;28;20031;-84
2023/07/07 05:23:36;;;;;;;8.57;3.80;;;13.10;99.90;;;;;;4988424;28;20065;-85
2023/07/07 05:26:03;;;;;;;4.38;3.97;;;13.10;99.90;;;;;;4973114;28;20061;-84
2023/07/07 05:28:29;;;;;;;5.28;4.30;;;13.20;99.90;;;;;;4978268;28;20106;-85
2023/07/07 05:30:54;;;;;;;4.78;3.30;;;13.30;99.90;;;;;;4990315;28;20033;-85
2023/07/07 05:33:21;;;;;;;4.85;4.28;;;13.50;99.90;;;;;;4971256;28;20125;-84
2023/07/07 05:35:55;;;;;;;4.43;3.88;;;13.70;99.90;;;;;;4997093;28;20104;-85
2023/07/07 05:38:23;;;;;;;4.50;3.40;;;14.20;99.90;;;;;;4976387;28;20043;-85
2023/07/07 05:40:50;;;;;;;5.38;4.25;;;14.60;99.90;;;;;;4976198;28;20405;-86
2023/07/07 05:43:20;;;;;;;4.82;3.60;;;15.10;99.90;;;;;;4966028;28;20034;-85
2023/07/07 05:45:46;;;;;;;5.75;3.65;;;15.60;99.90;;;;;;4980104;28;20030;-85
2023/07/07 05:48:13;;;;;;;7.13;3.70;;;16.10;99.90;;;;;;4989496;28;20042;-86
2023/07/07 05:50:40;;;;;;;5.05;4.22;;;16.60;99.90;;;;;;4976204;28;20026;-87
2023/07/07 05:53:07;;;;;;;5.22;4.15;;;17.10;99.90;;;;;;4976458;28;20523;-87
2023/07/07 05:55:35;;;;;;;6.07;3.65;;;17.50;99.90;;;;;;4983102;28;20529;-85
2023/07/07 05:58:02;;;;;;;4.00;3.38;;;17.90;99.90;;;;;;4979807;28;20034;-86
2023/07/07 06:00:29;;;;;;;4.10;3.70;;;18.30;99.90;;;;;;4961484;28;20101;-87
2023/07/07 06:02:56;;;;;;;3.78;3.10;;;18.60;99.90;;;;;;4974052;28;20026;-87
2023/07/07 06:05:22;;;;;;;4.80;2.92;;;19.00;99.90;;;;;;4972102;28;20125;-85
2023/07/07 06:07:52;;;;;;;4.45;3.20;;;19.30;99.10;;;;;;4996548;28;20030;-85
2023/07/07 06:10:18;;;;;;;4.38;3.08;;;19.70;97.50;;;;;;4991667;28;20121;-86
2023/07/07 06:12:44;;;;;;;3.42;3.13;;;20.00;96.60;;;;;;4958932;28;20565;-87
2023/07/07 06:15:11;;;;;;;4.03;3.20;;;20.30;95.30;;;;;;4990625;28;20219;-87
2023/07/07 06:17:36;;;;;;;3.33;2.75;;;20.70;95.50;;;;;;4985947;28;20034;-88
2023/07/07 06:20:03;;;;;;;3.28;2.75;;;21.00;93.60;;;;;;4949592;28;20046;-87
2023/07/07 06:22:30;;;;;;;3.72;2.85;;;21.30;92.50;;;;;;4977507;28;20104;-88
2023/07/07 06:24:56;;;;;;;3.47;2.65;;;21.70;91.40;;;;;;4990846;28;20026;-88
2023/07/07 06:27:22;;;;;;;4.57;2.80;;;22.00;90.70;;;;;;4951980;28;20382;-86
2023/07/07 06:29:48;;;;;;;6.50;3.05;;;22.30;90.00;;;;;;4985258;28;20034;-87
2023/07/07 06:32:13;;;;;;;3.22;2.92;;;22.60;86.50;;;;;;4967086;28;20031;-87
2023/07/07 06:34:39;;;;;;;3.33;3.03;;;22.80;84.10;;;;;;4974913;28;20416;-87
2023/07/07 06:37:06;;;;;;;3.80;2.83;;;23.10;85.70;;;;;;4964841;28;20093;-88
2023/07/07 06:39:32;;;;;;;3.50;2.40;;;23.30;76.40;;;;;;4980195;28;20049;-87
2023/07/07 06:41:59;;;;;;;5.60;3.00;;;23.50;77.10;;;;;;4987331;28;20125;-89
2023/07/07 06:44:25;;;;;;;4.00;2.80;;;23.60;78.90;;;;;;4986408;28;20094;-89
2023/07/07 06:46:51;;;;;;;3.83;2.70;;;23.90;74.70;;;;;;4974115;28;20539;-87
2023/07/07 06:49:17;;;;;;;4.00;2.80;;;24.20;70.80;;;;;;4972561;28;20041;-87
2023/07/07 06:51:43;;;;;;;6.72;2.80;;;24.40;72.30;;;;;;4968060;28;20037;-89
2023/07/07 06:54:08;;;;;;;4.53;3.10;;;24.70;70.90;;;;;;4947916;28;20038;-87
2023/07/07 06:56:34;;;;;;;4.53;2.95;;;25.00;70.30;;;;;;4981327;28;20030;-87
2023/07/07 06:59:00;;;;;;;4.15;2.88;;;25.20;69.20;;;;;;4959667;28;20133;-89
2023/07/07 07:01:26;;;;;;;4.38;2.67;;;25.60;69.80;;;;;;4985659;28;20114;-88
2023/07/07 07:03:51;;;;;;;4.50;2.92;;;26.00;67.00;;;;;;4964444;28;20034;-89
2023/07/07 07:06:17;;;;;;;3.67;2.40;;;26.20;61.60;;;;;;4961193;28;20904;-89
2023/07/07 07:08:43;;;;;;;3.75;2.65;;;26.20;59.90;;;;;;4970872;28;20041;-85
2023/07/07 07:11:09;;;;;;;5.20;2.60;;;26.30;58.40;;;;;;4989563;28;20512;-86
2023/07/07 07:13:34;;;;;;;4.50;2.88;;;25.90;58.40;;;;;;4958119;28;20038;-87
2023/07/07 07:16:00;;;;;;;3.20;2.33;;;25.80;56.70;;;;;;4978391;28;20034;-86
2023/07/07 07:18:26;;;;;;;5.95;2.78;;;25.60;57.30;;;;;;4961941;28;20042;-89
2023/07/07 07:20:54;;;;;;;3.70;2.55;;;25.30;59.30;;;;;;4978337;28;20030;-89
2023/07/07 07:23:21;;;;;;;5.97;3.03;;;25.40;58.10;;;;;;4991709;28;20030;-87
2023/07/07 07:25:48;;;;;;;3.35;2.60;;;25.50;57.00;;;;;;4989373;28;20034;-88
2023/07/07 07:28:15;;;;;;;4.28;2.53;;;25.50;61.10;;;;;;4988808;28;20027;-86
2023/07/07 07:30:41;;;;;;;4.75;2.47;;;25.50;58.30;;;;;;5006145;28;20022;-88
2023/07/07 07:33:13;;;;;;;5.70;2.67;;;25.50;58.30;;;;;;4971995;28;21185;-86
2023/07/07 07:35:39;;;;;;;5.32;2.60;;;25.50;58.60;;;;;;4993516;28;20030;-88
2023/07/07 07:38:05;;;;;;;3.58;2.67;;;25.60;57.50;;;;;;4993604;28;20390;-86
2023/07/07 07:40:31;;;;;;;2.50;2.30;;;25.70;60.00;;;;;;4983114;28;20127;-87
2023/07/07 07:42:57;;;;;;;4.68;3.22;;;25.70;59.80;;;;;;4974732;28;20041;-87
2023/07/07 07:45:23;;;;;;;5.05;2.60;;;25.60;60.80;;;;;;4981936;28;20061;-88
2023/07/07 07:47:51;;;;;;;4.90;2.90;;;25.40;58.70;;;;;;5000299;28;20026;-87
2023/07/07 07:50:18;;;;;;;4.25;2.83;;;25.20;61.40;;;;;;4971989;28;20030;-86
2023/07/07 07:52:44;;;;;;;3.72;2.95;;;25.10;59.10;;;;;;4988658;28;20022;-87
2023/07/07 07:55:11;;;;;;;3.53;2.67;;;25.00;60.70;;;;;;4979019;28;20042;-87
2023/07/07 07:57:36;;;;;;;4.47;2.83;;;24.80;59.30;;;;;;4991429;28;20031;-86
2023/07/07 08:00:04;;;;;;;3.20;2.80;;;24.80;62.50;;;;;;4962237;28;20536;-87
2023/07/07 08:02:38;;;;;;;4.38;3.25;;;25.00;61.90;;;;;;4987736;28;20034;-87
2023/07/07 08:05:05;;;;;;;3.65;2.53;;;25.10;60.60;;;;;;4997732;28;20034;-87
2023/07/07 08:07:31;;;;;;;3.28;2.85;;;25.40;59.50;;;;;;4980375;28;20030;-87
2023/07/07 08:09:57;;;;;;;3.97;2.58;;;25.50;62.70;;;;;;4974426;28;20034;-86
2023/07/07 08:12:23;;;;;;;4.40;2.80;;;25.80;64.10;;;;;;4972582;28;20477;-87
2023/07/07 08:14:49;;;;;;;8.90;3.50;;;26.10;59.50;;;;;;4987393;28;20081;-87
2023/07/07 08:17:15;;;;;;;3.72;2.50;;;26.60;57.30;;;;;;4973099;28;20047;-88
2023/07/07 08:19:42;;;;;;;5.65;2.88;;;27.00;55.50;;;;;;4973953;28;20573;-87
2023/07/07 08:22:12;;;;;;;4.50;3.10;;;27.40;57.80;;;;;;4990764;28;20417;-87
2023/07/07 08:24:41;;;;;;;9.07;2.90;;;27.90;55.30;;;;;;4978765;28;20462;-88
2023/07/07 08:27:08;;;;;;;2.83;2.40;;;28.20;54.90;;;;;;4989334;28;20105;-86
2023/07/07 08:29:34;;;;;;;3.60;2.10;;;28.60;55.10;;;;;;4980256;28;20400;-87
2023/07/07 08:32:00;;;;;;;7.32;2.53;;;29.10;54.10;;;;;;4989700;28;20405;-87
2023/07/07 08:34:26;;;;;;;2.85;2.35;;;29.50;53.20;;;;;;4995616;28;20030;-88
2023/07/07 08:36:59;;;;;;;7.35;2.50;;;29.70;52.40;;;;;;4994827;28;20114;-88
2023/07/07 08:39:28;;;;;;;3.88;2.42;;;29.40;51.00;;;;;;4971516;28;20038;-87
2023/07/07 08:42:06;;;;;;;4.72;2.58;;;29.70;51.00;;;;;;4991638;28;20035;-87
2023/07/07 08:44:35;;;;;;;4.75;2.45;;;30.00;51.80;;;;;;4970387;28;20041;-86
2023/07/07 08:47:28;;;;;;;4.40;2.63;;;29.90;49.20;;;;;;4995719;28;20022;-87
2023/07/07 08:49:57;;;;;;;6.85;3.00;;;29.50;50.10;;;;;;4990839;28;20058;-87
2023/07/07 08:52:32;;;;;;;4.72;3.15;;;29.20;50.10;;;;;;4994108;28;20034;-87
2023/07/07 08:55:16;;;;;;;8.18;3.20;;;28.90;53.90;;;;;;4995463;28;20030;-86
2023/07/07 08:58:00;;;;;;;4.95;2.95;;;28.70;53.50;;;;;;5007217;28;20034;-88
2023/07/07 09:00:44;;;;;;;3.95;2.70;;;28.50;51.10;;;;;;4992245;28;20505;-87
2023/07/07 09:03:24;;;;;;;3.08;2.60;;;28.30;51.00;;;;;;4983554;28;20490;-86
2023/07/07 09:06:11;;;;;;;2.95;2.55;;;27.90;50.80;;;;;;4994587;28;20054;-85
2023/07/07 09:08:45;;;;;;;5.35;3.20;;;27.60;56.10;;;;;;4976421;28;20027;-88
2023/07/07 09:12:05;;;;;;;2.80;2.40;;;27.30;54.80;;;;;;4995117;28;20035;-86
2023/07/07 09:14:31;;;;;;;2.95;2.67;;;27.30;54.30;;;;;;4911949;29;20036;-86
2023/07/07 09:17:03;;;;;;;5.25;3.22;;;27.10;51.80;;;;;;4969628;28;20779;-88
2023/07/07 09:19:36;;;;;;;4.78;3.20;;;27.10;56.80;;;;;;4982934;28;20035;-88
2023/07/07 09:22:14;;;;;;;3.38;2.72;;;27.00;51.90;;;;;;4991508;28;20035;-88
2023/07/07 09:24:53;;;;;;;4.03;3.13;;;26.90;52.00;;;;;;4984509;28;20064;-88
2023/07/07 09:27:24;;;;;;;3.92;2.97;;;26.80;47.20;;;;;;4998298;28;20464;-87
2023/07/07 09:29:55;;;;;;;7.40;3.42;;;26.60;48.10;;;;;;4976854;28;20030;-86
2023/07/07 09:32:22;;;;;;;4.38;2.92;;;26.20;46.00;;;;;;4992115;28;20342;-87
2023/07/07 09:34:48;;;;;;;4.57;2.95;;;26.00;47.10;;;;;;4996463;28;20099;-87
2023/07/07 09:37:26;;;;;;;3.55;3.10;;;25.90;45.40;;;;;;4988720;28;20038;-88
2023/07/07 09:40:17;;;;;;;3.25;2.55;;;25.80;47.40;;;;;;4997758;28;20034;-88
2023/07/07 09:43:17;;;;;;;2.95;2.70;;;25.60;49.20;;;;;;4996990;28;20038;-88
2023/07/07 09:46:11;;;;;;;4.13;2.97;;;25.50;49.10;;;;;;5012161;28;20040;-87
2023/07/07 09:48:47;;;;;;;4.70;3.30;;;25.50;49.50;;;;;;4978004;28;20029;-87
2023/07/07 09:52:00;;;;;;;4.55;2.80;;;25.60;49.40;;;;;;5008069;28;20423;-86
2023/07/07 09:54:27;;;;;;;4.85;2.80;;;25.60;47.90;;;;;;4991659;28;20583;-87
2023/07/07 09:57:08;;;;;;;3.97;3.10;;;25.60;52.00;;;;;;4991500;28;20030;-85
2023/07/07 09:59:42;;;;;;;6.68;3.25;;;25.70;54.10;;;;;;4974738;28;20027;-87
2023/07/07 10:02:18;;;;;;;4.00;3.10;;;25.70;55.10;;;;;;4951781;28;20584;-88
2023/07/07 10:04:48;;;;;;;4.18;2.97;;;25.70;51.10;;;;;;4985231;28;20034;-87
2023/07/07 10:07:18;;;;;;;5.57;4.65;;;25.80;52.50;;;;;;4985030;28;20030;-89
2023/07/07 10:09:44;;;;;;;3.63;2.95;;;25.80;50.60;;;;;;4961507;28;20031;-88
2023/07/07 10:12:16;;;;;;;4.28;3.33;;;25.80;48.90;;;;;;4985242;28;20040;-88
2023/07/07 10:14:42;;;;;;;5.47;3.10;;;25.80;47.40;;;;;;4993404;28;20045;-88
2023/07/07 10:17:08;;;;;;;3.72;2.90;;;25.80;49.30;;;;;;4990521;28;20037;-87
2023/07/07 10:19:40;;;;;;;3.25;2.85;;;25.80;47.00;;;;;;5010926;28;20345;-86
2023/07/07 10:22:08;;;;;;;6.90;3.15;;;25.70;47.80;;;;;;5006433;28;20516;-87
2023/07/07 10:24:33;;;;;;;4.05;3.20;;;25.50;47.50;;;;;;4998832;28;20641;-87
2023/07/07 10:27:00;;;;;;;4.90;3.20;;;25.40;49.90;;;;;;4991768;28;20052;-86
2023/07/07 10:29:33;;;;;;;3.83;2.88;;;25.40;49.80;;;;;;4972281;28;20668;-87
2023/07/07 10:31:59;;;;;;;5.80;3.13;;;25.50;51.00;;;;;;4980503;28;20034;-87
2023/07/07 10:34:41;;;;;;;4.00;2.97;;;25.50;49.00;;;;;;4992789;28;20088;-87
2023/07/07 10:37:22;;;;;;;4.93;3.10;;;25.50;49.60;;;;;;4993568;28;20038;-87
2023/07/07 10:39:55;;;;;;;4.13;2.92;;;25.60;49.30;;;;;;4966164;28;20037;-88
2023/07/07 10:42:25;;;;;;;5.60;2.65;;;25.60;48.90;;;;;;4976006;28;20034;-86
2023/07/07 10:44:52;;;;;;;5.30;3.13;;;25.70;48.90;;;;;;4988698;28;20045;-88
2023/07/07 10:47:26;;;;;;;6.07;3.00;;;25.70;47.20;;;;;;4984476;28;20554;-86
2023/07/07 10:49:52;;;;;;;5.45;3.45;;;25.60;46.10;;;;;;4978433;28;20033;-85
2023/07/07 10:52:41;;;;;;;3.58;2.83;;;25.40;46.60;;;;;;4995129;28;20054;-87
2023/07/07 10:55:19;;;;;;;3.58;2.95;;;25.50;48.30;;;;;;5003716;28;20042;-88
2023/07/07 10:58:19;;;;;;;5.80;3.40;;;25.50;48.20;;;;;;4981304;28;20653;-86
2023/07/07 11:01:06;;;;;;;5.38;3.20;;;25.50;49.00;;;;;;5006517;28;20037;-87
2023/07/07 11:03:51;;;;;;;6.20;3.00;;;25.60;47.90;;;;;;4979063;28;20038;-87
2023/07/07 11:06:41;;;;;;;3.80;2.97;;;25.70;46.70;;;;;;4998357;28;20485;-87
2023/07/07 11:09:18;;;;;;;6.43;3.00;;;25.70;45.60;;;;;;4989086;28;20040;-86
2023/07/07 11:12:01;;;;;;;3.63;3.00;;;25.70;45.40;;;;;;4993237;28;20026;-87
2023/07/07 11:14:58;;;;;;;3.20;2.70;;;25.70;47.50;;;;;;4984919;28;20042;-85
2023/07/07 11:17:57;;;;;;;4.15;3.05;;;25.80;47.30;;;;;;4988496;28;20085;-85
2023/07/07 11:20:43;;;;;;;3.30;2.90;;;25.90;50.10;;;;;;4979597;28;20448;-87
2023/07/07 11:23:29;;;;;;;;;;;26.00;49.50;;;;;;4975348;28;20523;-86
2023/07/07 11:26:08;;;;;;;3.55;3.25;;;26.20;51.20;;;;;;4981246;28;19913;-85
2023/07/07 11:29:12;;;;;;;3.90;3.22;;;26.30;49.70;;;;;;5000805;28;20805;-84
2023/07/07 11:31:44;;;;;;;4.55;3.10;;;26.40;46.20;;;;;;5016164;28;20512;-86
2023/07/07 11:34:28;;;;;;;4.82;2.92;;;26.40;46.30;;;;;;4982136;28;20023;-87
2023/07/07 11:37:06;;;;;;;6.63;3.42;;;26.50;46.10;;;;;;4990433;28;20030;-86
2023/07/07 11:40:09;;;;;;;5.57;3.17;;;26.60;47.20;;;;;;4994570;28;20061;-87
2023/07/07 11:42:59;;;;;;;6.07;3.05;;;26.70;49.30;;;;;;4982291;28;20134;-84
2023/07/07 11:45:31;;;;;;;5.07;3.03;;;26.80;48.10;;;;;;4988709;28;20046;-86
2023/07/07 11:48:15;;;;;;;5.10;2.95;;;26.90;44.40;;;;;;4974643;28;20030;-85
2023/07/07 11:50:54;;;;;;;3.42;2.63;;;26.90;45.10;;;;;;4981913;28;20050;-86
2023/07/07 11:53:36;;;;;;;4.65;3.03;;;27.00;46.00;;;;;;5002630;28;20038;-86
2023/07/07 11:56:07;;;;;;;4.10;3.25;;;27.10;43.80;;;;;;4996064;28;20038;-86
2023/07/07 11:59:02;;;;;;;3.72;3.20;;;27.20;45.80;;;;;;4980693;28;20072;-84
2023/07/07 12:01:36;;;;;;;4.78;3.20;;;27.20;42.80;;;;;;4966927;28;20116;-86
2023/07/07 12:04:27;;;;;;;4.40;2.80;;;26.90;41.80;;;;;;4986073;28;20034;-85
2023/07/07 12:06:58;;;;;;;4.55;3.20;;;26.70;44.60;;;;;;4965672;28;20034;-86
2023/07/07 12:09:47;;;;;;;5.40;3.30;;;26.90;43.10;;;;;;5010155;28;20042;-86
2023/07/07 12:12:39;;;;;;;3.10;2.63;;;27.00;41.50;;;;;;4986301;28;20022;-85
2023/07/07 12:15:12;;;;;;;7.80;2.90;;;27.00;42.20;;;;;;4953006;28;20103;-85
2023/07/07 12:17:41;;;;;;;5.10;2.95;;;27.00;40.80;;;;;;4988232;28;20030;-87
2023/07/07 12:20:15;;;;;;;5.50;3.17;;;27.00;41.90;;;;;;4992046;28;20390;-86
2023/07/07 12:22:42;;;;;;;4.60;2.63;;;27.20;41.80;;;;;;4985513;28;20034;-86
2023/07/07 12:25:21;;;;;;;4.13;2.92;;;27.30;40.90;;;;;;4987427;28;20477;-86
2023/07/07 12:27:51;;;;;;;4.63;2.72;;;27.40;41.70;;;;;;4974780;28;20037;-86
2023/07/07 12:30:30;;;;;;;3.97;2.90;;;27.50;40.80;;;;;;4985280;28;20026;-85
2023/07/07 12:32:57;;;;;;;4.20;2.80;;;27.70;40.90;;;;;;4985071;28;20058;-87
2023/07/07 12:35:46;;;;;;;;;;;27.80;40.40;;;;;;4989010;28;20053;-87
2023/07/07 12:38:30;;;;;;;3.33;2.88;;;27.80;38.90;;;;;;4981968;28;19967;-88
2023/07/07 12:41:15;;;;;;;3.17;2.83;;;27.80;39.80;;;;;;4988639;28;20034;-86
2023/07/07 12:43:59;;;;;;;4.38;2.80;;;27.80;39.60;;;;;;4972793;28;20094;-85
2023/07/07 12:46:28;;;;;;;3.75;2.75;;;27.80;39.60;;;;;;4971105;28;20034;-85
2023/07/07 12:48:59;;;;;;;4.95;3.00;;;28.00;42.80;;;;;;4977251;28;20110;-87
2023/07/07 12:51:29;;;;;;;5.25;2.92;;;28.30;44.20;;;;;;4978634;28;20069;-85
2023/07/07 12:53:56;;;;;;;3.88;3.40;;;28.50;41.70;;;;;;4975619;28;20038;-87
2023/07/07 12:56:27;;;;;;;4.15;2.92;;;28.40;38.50;;;;;;4962191;28;20046;-85
2023/07/07 12:59:01;;;;;;;3.70;3.35;;;28.50;39.30;;;;;;4966911;28;20163;-86
2023/07/07 13:01:38;;;;;;;4.30;2.90;;;28.80;40.50;;;;;;4969916;28;20128;-85
2023/07/07 13:04:13;;;;;;;3.78;3.00;;;29.10;42.10;;;;;;4983470;28;20037;-85
2023/07/07 13:06:45;;;;;;;;;;;29.30;38.00;;;;;;4992809;28;20026;-86
2023/07/07 13:09:16;;;;;;;3.47;2.58;;;29.60;38.10;;;;;;4984356;28;19909;-84